Time;durP1;ratioP1;P1;durP2;ratioP2;P2;SDS_P1;SDS_P2;PMS_P1;PMS_P2;Temp;Humidity;BMP_temperature;BMP_pressure;BME280_temperature;BME280_humidity;BME280_pressure;Samples;Min_cycle;Max_cycle;Signal;HPM_P1;HPM_P2
2024/01/20 00:01:53;;;;;;;18.97;17.20;;;2.10;99.90;;;;;;5100975;28;20476;-82
2024/01/20 00:04:21;;;;;;;17.77;16.17;;;2.10;99.90;;;;;;5101480;28;20482;-82
2024/01/20 00:06:51;;;;;;;20.10;18.27;;;2.10;99.90;;;;;;5103015;28;20997;-81
2024/01/20 00:09:20;;;;;;;19.30;16.70;;;2.10;99.90;;;;;;5102722;28;20439;-81
2024/01/20 00:11:53;;;;;;;18.57;16.70;;;2.10;99.90;;;;;;5101315;28;20907;-83
2024/01/20 00:14:22;;;;;;;18.13;16.33;;;2.10;99.90;;;;;;5100823;28;20436;-82
2024/01/20 00:16:50;;;;;;;18.67;16.90;;;2.10;99.90;;;;;;5101843;28;20481;-81
2024/01/20 00:19:18;;;;;;;20.97;18.87;;;2.10;99.90;;;;;;5099853;28;20444;-82
2024/01/20 00:21:47;;;;;;;17.80;15.97;;;2.10;99.90;;;;;;5099449;28;20475;-82
2024/01/20 00:24:17;;;;;;;20.20;17.93;;;2.10;99.90;;;;;;5099093;28;20527;-81
2024/01/20 00:26:45;;;;;;;19.23;17.43;;;2.10;99.90;;;;;;5099910;28;20952;-82
2024/01/20 00:29:14;;;;;;;19.80;17.70;;;2.10;99.90;;;;;;5098823;28;20441;-81
2024/01/20 00:31:42;;;;;;;21.20;19.37;;;2.00;99.90;;;;;;5098383;28;20489;-81
2024/01/20 00:34:11;;;;;;;21.10;18.87;;;2.00;99.90;;;;;;5098228;28;20451;-81
2024/01/20 00:36:39;;;;;;;19.80;17.90;;;2.00;99.90;;;;;;5100275;28;20459;-82
2024/01/20 00:39:07;;;;;;;22.80;20.50;;;2.00;99.90;;;;;;5098997;28;20447;-81
2024/01/20 00:41:37;;;;;;;19.90;18.00;;;2.00;99.90;;;;;;5097777;28;20494;-81
2024/01/20 00:44:05;;;;;;;22.20;20.20;;;2.00;99.90;;;;;;5100097;28;20460;-81
2024/01/20 00:46:34;;;;;;;22.80;20.80;;;2.00;99.90;;;;;;5098292;28;20477;-82
2024/01/20 00:49:03;;;;;;;21.83;19.80;;;1.90;99.90;;;;;;5097540;28;20451;-81
2024/01/20 00:51:31;;;;;;;22.87;20.60;;;2.00;99.90;;;;;;5096199;28;20465;-79
2024/01/20 00:53:59;;;;;;;21.53;19.63;;;1.90;99.90;;;;;;5095922;28;20501;-81
2024/01/20 00:56:28;;;;;;;23.93;21.37;;;1.90;99.90;;;;;;5095544;28;20439;-80
2024/01/20 00:58:57;;;;;;;25.17;22.73;;;1.90;99.90;;;;;;5095685;28;20495;-82
2024/01/20 01:01:26;;;;;;;24.23;22.00;;;1.90;99.90;;;;;;5096869;28;20519;-82
2024/01/20 01:03:54;;;;;;;25.30;23.00;;;2.10;99.90;;;;;;5099093;28;20467;-80
2024/01/20 01:06:22;;;;;;;23.40;21.20;;;1.90;99.90;;;;;;5101613;28;20436;-80
2024/01/20 01:08:50;;;;;;;25.20;22.97;;;1.90;99.90;;;;;;5101370;28;20534;-81
2024/01/20 01:11:19;;;;;;;24.80;22.57;;;1.90;99.90;;;;;;5102554;28;20470;-80
2024/01/20 01:13:47;;;;;;;26.00;23.57;;;1.80;99.90;;;;;;5102267;28;20447;-81
2024/01/20 01:16:17;;;;;;;23.80;21.70;;;1.80;99.90;;;;;;5100777;28;20482;-82
2024/01/20 01:18:45;;;;;;;24.43;21.83;;;1.90;99.90;;;;;;5099405;28;20478;-82
2024/01/20 01:21:14;;;;;;;26.67;24.17;;;1.80;99.90;;;;;;5099801;28;20518;-81
2024/01/20 01:23:42;;;;;;;25.33;23.17;;;1.80;99.90;;;;;;5099256;28;20467;-81
2024/01/20 01:26:10;;;;;;;25.50;23.30;;;1.80;99.90;;;;;;5098880;28;20449;-82
2024/01/20 01:28:39;;;;;;;26.07;23.67;;;1.80;99.90;;;;;;5098523;28;20874;-82
2024/01/20 01:31:07;;;;;;;25.80;23.40;;;1.80;99.90;;;;;;5099012;28;20464;-82
2024/01/20 01:33:37;;;;;;;26.70;24.37;;;1.80;99.90;;;;;;5099127;28;20929;-81
2024/01/20 01:36:06;;;;;;;26.87;24.57;;;1.70;99.90;;;;;;5099553;28;20449;-81
2024/01/20 01:38:34;;;;;;;28.30;25.70;;;1.70;99.90;;;;;;5098279;28;20494;-81
2024/01/20 01:41:03;;;;;;;26.40;24.10;;;1.70;99.90;;;;;;5099466;28;20455;-81
2024/01/20 01:43:31;;;;;;;28.87;26.20;;;1.70;99.90;;;;;;5098868;28;20471;-81
2024/01/20 01:45:59;;;;;;;29.00;26.40;;;1.70;99.90;;;;;;5098638;28;20470;-81
2024/01/20 01:48:28;;;;;;;27.70;25.20;;;1.70;99.90;;;;;;5103420;28;20515;-81
2024/01/20 01:50:59;;;;;;;25.63;23.33;;;1.70;99.90;;;;;;5103831;28;20489;-81
2024/01/20 01:53:27;;;;;;;27.93;25.10;;;1.70;99.90;;;;;;5103314;28;20448;-82
2024/01/20 01:55:56;;;;;;;28.93;26.33;;;1.70;99.90;;;;;;5101935;28;20449;-80
2024/01/20 01:58:26;;;;;;;26.33;23.73;;;1.70;99.90;;;;;;5101193;28;20447;-82
2024/01/20 02:00:55;;;;;;;29.63;26.83;;;1.70;99.90;;;;;;5102235;28;20453;-82
2024/01/20 02:03:24;;;;;;;30.17;27.07;;;1.60;99.90;;;;;;5103378;28;20473;-82
2024/01/20 02:05:52;;;;;;;27.63;25.03;;;1.60;99.90;;;;;;5102987;28;20911;-81
2024/01/20 02:08:23;;;;;;;29.63;27.03;;;1.70;99.90;;;;;;5102006;28;20543;-81
2024/01/20 02:10:52;;;;;;;30.17;27.17;;;1.60;99.90;;;;;;5104366;28;20861;-82
2024/01/20 02:13:21;;;;;;;30.03;27.20;;;1.60;99.90;;;;;;5115910;28;20455;-82
2024/01/20 02:15:49;;;;;;;29.97;26.80;;;1.60;99.90;;;;;;5106998;28;20451;-82
2024/01/20 02:18:18;;;;;;;29.77;27.03;;;1.60;99.90;;;;;;5104579;28;20451;-83
2024/01/20 02:20:46;;;;;;;29.10;26.47;;;1.60;99.90;;;;;;5103134;28;20449;-81
2024/01/20 02:23:16;;;;;;;28.53;26.13;;;1.60;99.90;;;;;;5106172;28;20461;-81
2024/01/20 02:25:44;;;;;;;29.97;26.77;;;1.60;99.90;;;;;;5104070;28;20471;-81
2024/01/20 02:28:12;;;;;;;29.73;26.83;;;1.60;99.90;;;;;;5103017;28;20867;-81
2024/01/20 02:30:41;;;;;;;29.30;26.70;;;1.60;99.90;;;;;;5100997;28;20774;-82
2024/01/20 02:33:10;;;;;;;28.80;26.00;;;1.60;99.90;;;;;;5100487;28;20475;-82
2024/01/20 02:35:38;;;;;;;30.47;27.70;;;1.50;99.90;;;;;;5101509;28;20441;-81
2024/01/20 02:38:06;;;;;;;31.83;28.73;;;1.60;99.90;;;;;;5103011;28;20508;-82
2024/01/20 02:40:36;;;;;;;29.87;27.33;;;1.60;99.90;;;;;;5102284;28;20444;-81
2024/01/20 02:43:04;;;;;;;30.10;27.03;;;1.60;99.90;;;;;;5103353;28;20515;-80
2024/01/20 02:45:32;;;;;;;30.87;28.00;;;1.60;99.90;;;;;;5103023;28;20502;-80
2024/01/20 02:48:01;;;;;;;31.30;28.40;;;1.60;99.90;;;;;;5102763;28;20969;-81
2024/01/20 02:50:30;;;;;;;30.37;27.37;;;1.50;99.90;;;;;;5101365;28;20449;-80
2024/01/20 02:52:59;;;;;;;29.10;26.47;;;1.50;99.90;;;;;;5100929;28;20485;-82
2024/01/20 02:55:27;;;;;;;30.30;27.67;;;1.50;99.90;;;;;;5101102;28;20493;-81
2024/01/20 02:57:56;;;;;;;31.07;28.07;;;1.60;99.90;;;;;;5100084;28;20856;-81
2024/01/20 03:00:25;;;;;;;31.20;28.20;;;1.50;99.90;;;;;;5099808;28;20441;-81
2024/01/20 03:02:53;;;;;;;29.23;26.30;;;1.50;99.90;;;;;;5101035;28;20901;-80
2024/01/20 03:05:22;;;;;;;30.93;28.00;;;1.50;99.90;;;;;;5099705;28;20473;-81
2024/01/20 03:07:50;;;;;;;29.93;27.00;;;1.50;99.90;;;;;;5101343;28;20474;-81
2024/01/20 03:10:18;;;;;;;30.60;27.50;;;1.50;99.90;;;;;;5099784;28;20445;-80
2024/01/20 03:12:47;;;;;;;29.20;26.50;;;1.50;99.90;;;;;;5099775;28;20486;-81
2024/01/20 03:15:16;;;;;;;29.40;26.40;;;1.50;99.90;;;;;;5099858;28;20490;-81
2024/01/20 03:17:45;;;;;;;30.13;27.53;;;1.50;99.90;;;;;;5099906;28;20818;-81
2024/01/20 03:20:13;;;;;;;30.03;27.33;;;1.50;99.90;;;;;;5099853;28;20549;-81
2024/01/20 03:22:41;;;;;;;29.17;26.50;;;1.50;99.90;;;;;;5100116;28;20507;-81
2024/01/20 03:25:10;;;;;;;29.03;26.33;;;1.60;99.90;;;;;;5099701;28;21011;-81
2024/01/20 03:27:38;;;;;;;29.00;26.33;;;1.50;99.90;;;;;;5099051;28;20482;-81
2024/01/20 03:30:08;;;;;;;29.57;26.90;;;1.50;99.90;;;;;;5100281;28;20511;-80
2024/01/20 03:32:37;;;;;;;30.47;27.67;;;1.50;99.90;;;;;;5099333;28;20551;-81
2024/01/20 03:35:06;;;;;;;29.47;26.50;;;1.60;99.90;;;;;;5098438;28;20855;-80
2024/01/20 03:37:34;;;;;;;31.97;29.27;;;1.50;99.90;;;;;;5097661;28;20455;-82
2024/01/20 03:40:03;;;;;;;31.60;28.50;;;1.60;99.90;;;;;;5097725;28;20563;-81
2024/01/20 03:42:31;;;;;;;31.63;28.50;;;1.50;99.90;;;;;;5098085;28;20463;-81
2024/01/20 03:44:59;;;;;;;30.57;27.50;;;1.60;99.90;;;;;;5097497;28;20467;-80
2024/01/20 03:47:28;;;;;;;31.33;28.23;;;1.50;99.90;;;;;;5097282;28;20450;-82
2024/01/20 03:50:00;;;;;;;30.57;27.73;;;1.50;99.90;;;;;;5096734;28;20809;-82
2024/01/20 03:52:28;;;;;;;31.90;28.70;;;1.50;99.90;;;;;;5096658;28;20991;-82
2024/01/20 03:54:56;;;;;;;31.70;28.30;;;1.50;99.90;;;;;;5096297;28;20452;-81
2024/01/20 03:57:24;;;;;;;32.40;28.90;;;1.50;99.90;;;;;;5096065;28;20436;-81
2024/01/20 03:59:53;;;;;;;31.90;28.80;;;1.50;99.90;;;;;;5097429;28;20807;-80
2024/01/20 04:02:21;;;;;;;32.53;29.03;;;1.50;99.90;;;;;;5095902;28;20455;-82
2024/01/20 04:04:49;;;;;;;32.13;29.10;;;1.50;99.90;;;;;;5095797;28;20485;-82
2024/01/20 04:07:20;;;;;;;34.83;31.30;;;1.50;99.90;;;;;;5098283;28;20437;-81
2024/01/20 04:09:48;;;;;;;33.83;29.53;;;1.40;99.90;;;;;;5097730;28;20462;-81
2024/01/20 04:12:17;;;;;;;31.90;28.73;;;1.40;99.90;;;;;;5097226;28;20464;-82
2024/01/20 04:14:46;;;;;;;34.37;30.10;;;1.40;99.90;;;;;;5097418;28;20563;-81
2024/01/20 04:17:14;;;;;;;33.60;29.90;;;1.30;99.90;;;;;;5097197;28;20447;-81
2024/01/20 04:19:43;;;;;;;34.07;29.33;;;1.30;99.90;;;;;;5096776;28;20472;-81
2024/01/20 04:22:11;;;;;;;33.63;30.23;;;1.30;99.90;;;;;;5096698;28;20465;-80
2024/01/20 04:24:40;;;;;;;33.53;30.10;;;1.30;99.90;;;;;;5097009;28;20565;-79
2024/01/20 04:27:08;;;;;;;33.93;30.43;;;1.30;99.90;;;;;;5099448;28;20470;-82
2024/01/20 04:29:37;;;;;;;34.40;31.00;;;1.20;99.90;;;;;;5112348;28;20445;-83
2024/01/20 04:32:06;;;;;;;32.97;29.50;;;1.20;99.90;;;;;;5105396;28;20466;-82
2024/01/20 04:34:34;;;;;;;34.80;31.10;;;1.20;99.90;;;;;;5105441;28;20450;-82
2024/01/20 04:37:02;;;;;;;33.20;29.80;;;1.20;99.90;;;;;;5104577;28;20787;-81
2024/01/20 04:39:31;;;;;;;35.23;31.43;;;1.20;99.90;;;;;;5104647;28;20448;-80
2024/01/20 04:42:00;;;;;;;33.80;30.30;;;1.20;99.90;;;;;;5104305;28;20835;-79
2024/01/20 04:44:29;;;;;;;35.47;31.70;;;1.20;99.90;;;;;;5103885;28;20439;-81
2024/01/20 04:46:57;;;;;;;34.23;30.60;;;1.10;99.90;;;;;;5104483;28;20453;-82
2024/01/20 04:49:25;;;;;;;34.50;31.00;;;1.10;99.90;;;;;;5102937;28;20453;-82
2024/01/20 04:51:54;;;;;;;36.50;32.80;;;1.10;99.90;;;;;;5100282;28;20546;-82
2024/01/20 04:54:22;;;;;;;34.33;30.80;;;1.10;99.90;;;;;;5098597;28;20504;-82
2024/01/20 04:56:50;;;;;;;36.50;32.63;;;1.10;99.90;;;;;;5098843;28;20454;-82
2024/01/20 04:59:20;;;;;;;36.73;31.90;;;1.00;99.90;;;;;;5099089;28;20560;-81
2024/01/20 05:01:48;;;;;;;36.10;31.00;;;1.10;99.90;;;;;;5099748;28;20483;-81
2024/01/20 05:04:17;;;;;;;36.60;32.70;;;1.10;99.90;;;;;;5100522;28;20451;-82
2024/01/20 05:06:45;;;;;;;39.33;32.13;;;1.00;99.90;;;;;;5100227;28;20500;-81
2024/01/20 05:09:14;;;;;;;37.33;32.50;;;1.00;99.90;;;;;;5101867;28;20498;-82
2024/01/20 05:11:43;;;;;;;36.70;32.73;;;1.00;99.90;;;;;;5100695;28;20478;-82
2024/01/20 05:14:11;;;;;;;37.80;31.50;;;1.00;99.90;;;;;;5100206;28;20450;-81
2024/01/20 05:16:41;;;;;;;33.87;30.37;;;1.00;99.90;;;;;;5099321;28;20449;-82
2024/01/20 05:19:09;;;;;;;35.20;29.83;;;1.00;99.90;;;;;;5101039;28;20542;-81
2024/01/20 05:21:38;;;;;;;38.67;31.63;;;1.00;99.90;;;;;;5101943;28;20471;-82
2024/01/20 05:24:06;;;;;;;41.73;32.57;;;1.00;99.90;;;;;;5104964;28;20505;-83
2024/01/20 05:26:35;;;;;;;35.80;30.83;;;1.00;99.90;;;;;;5102002;28;20494;-82
2024/01/20 05:29:03;;;;;;;39.27;31.93;;;0.90;99.90;;;;;;5102873;28;20433;-82
2024/01/20 05:31:32;;;;;;;39.00;33.33;;;0.90;99.90;;;;;;5103311;28;20489;-81
2024/01/20 05:34:02;;;;;;;36.97;30.33;;;0.90;99.90;;;;;;5101989;28;20455;-83
2024/01/20 05:36:30;;;;;;;34.83;30.50;;;0.90;99.90;;;;;;5101359;28;20448;-83
2024/01/20 05:38:59;;;;;;;38.20;30.83;;;0.90;99.90;;;;;;5100932;28;20442;-83
2024/01/20 05:41:27;;;;;;;36.03;29.50;;;0.90;99.90;;;;;;5101082;28;20462;-81
2024/01/20 05:43:55;;;;;;;39.63;32.90;;;0.90;99.90;;;;;;5101891;28;20450;-81
2024/01/20 05:46:24;;;;;;;37.33;30.63;;;0.90;99.90;;;;;;5101221;28;20571;-83
2024/01/20 05:48:52;;;;;;;35.17;28.90;;;0.90;99.90;;;;;;5099480;28;20802;-82
2024/01/20 05:51:22;;;;;;;43.50;30.57;;;0.90;99.90;;;;;;5098730;28;20896;-82
2024/01/20 05:53:51;;;;;;;37.10;29.90;;;0.90;99.90;;;;;;5098758;28;20448;-81
2024/01/20 05:56:20;;;;;;;35.63;27.17;;;0.90;99.90;;;;;;5098097;28;20441;-82
2024/01/20 05:58:48;;;;;;;36.40;28.60;;;0.90;99.90;;;;;;5098213;28;20494;-81
2024/01/20 06:01:17;;;;;;;37.23;28.57;;;0.90;99.90;;;;;;5098286;28;20463;-82
2024/01/20 06:03:45;;;;;;;33.03;29.03;;;0.90;99.90;;;;;;5098014;28;20449;-81
2024/01/20 06:06:14;;;;;;;34.80;27.27;;;1.00;99.90;;;;;;5098554;28;20477;-82
2024/01/20 06:08:43;;;;;;;36.60;27.70;;;1.00;99.90;;;;;;5097497;28;20450;-82
2024/01/20 06:11:12;;;;;;;33.27;27.80;;;1.00;99.90;;;;;;5096963;28;20905;-82
2024/01/20 06:13:40;;;;;;;36.60;28.30;;;1.00;99.90;;;;;;5096950;28;20459;-81
2024/01/20 06:16:12;;;;;;;38.83;29.03;;;1.00;99.90;;;;;;5098265;28;20446;-82
2024/01/20 06:18:40;;;;;;;36.03;25.33;;;1.00;99.90;;;;;;5097232;28;20456;-83
2024/01/20 06:21:09;;;;;;;33.53;26.40;;;1.00;99.90;;;;;;5096929;28;20472;-82
2024/01/20 06:23:38;;;;;;;34.43;28.80;;;1.00;99.90;;;;;;5096816;28;20865;-81
2024/01/20 06:26:08;;;;;;;37.13;28.63;;;0.90;99.90;;;;;;5097016;28;20478;-82
2024/01/20 06:28:36;;;;;;;38.63;28.67;;;1.00;99.90;;;;;;5097117;28;20483;-81
2024/01/20 06:31:05;;;;;;;37.00;28.30;;;0.90;99.90;;;;;;5096572;28;20475;-82
2024/01/20 06:33:33;;;;;;;34.93;26.80;;;0.90;99.90;;;;;;5098642;28;20531;-82
2024/01/20 06:36:02;;;;;;;37.60;27.63;;;0.90;99.90;;;;;;5099253;28;20440;-82
2024/01/20 06:38:31;;;;;;;36.93;26.40;;;0.90;99.90;;;;;;5100263;28;20460;-82
2024/01/20 06:40:59;;;;;;;37.03;28.33;;;0.80;99.90;;;;;;5101159;28;20965;-81
2024/01/20 06:43:29;;;;;;;38.50;30.67;;;0.90;99.90;;;;;;5100164;28;20448;-82
2024/01/20 06:45:58;;;;;;;36.70;27.80;;;0.90;99.90;;;;;;5100400;28;20473;-81
2024/01/20 06:48:26;;;;;;;35.67;26.20;;;0.90;99.90;;;;;;5099382;28;20447;-81
2024/01/20 06:50:55;;;;;;;36.07;27.80;;;0.80;99.90;;;;;;5098410;28;20454;-79
2024/01/20 06:53:23;;;;;;;35.77;27.57;;;0.80;99.90;;;;;;5098947;28;20438;-81
2024/01/20 06:55:52;;;;;;;37.23;28.83;;;0.80;99.90;;;;;;5099640;28;20952;-83
2024/01/20 06:58:20;;;;;;;39.23;30.57;;;0.80;99.90;;;;;;5100592;28;20438;-79
2024/01/20 07:00:50;;;;;;;38.83;28.43;;;0.80;99.90;;;;;;5098982;28;20457;-81
2024/01/20 07:03:19;;;;;;;36.37;27.73;;;0.90;99.90;;;;;;5097947;28;20445;-82
2024/01/20 07:05:47;;;;;;;40.73;30.07;;;0.80;99.90;;;;;;5100042;28;20452;-83
2024/01/20 07:08:18;;;;;;;35.10;28.73;;;0.80;99.90;;;;;;5099654;28;20455;-81
2024/01/20 07:10:47;;;;;;;43.97;30.37;;;0.80;99.90;;;;;;5100466;28;20537;-82
2024/01/20 07:13:15;;;;;;;40.20;28.50;;;0.80;99.90;;;;;;5099733;28;20479;-81
2024/01/20 07:15:44;;;;;;;36.43;26.57;;;0.70;99.90;;;;;;5098965;28;20518;-81
2024/01/20 07:18:13;;;;;;;35.27;26.07;;;0.80;99.90;;;;;;5100950;28;20489;-81
2024/01/20 07:20:42;;;;;;;38.17;26.90;;;0.80;99.90;;;;;;5100431;28;20428;-81
2024/01/20 07:23:11;;;;;;;41.10;27.57;;;0.80;99.90;;;;;;5099468;28;20482;-81
2024/01/20 07:25:41;;;;;;;34.17;27.43;;;0.80;99.90;;;;;;5099398;28;20992;-81
2024/01/20 07:28:10;;;;;;;36.07;26.33;;;0.70;99.90;;;;;;5098730;28;20466;-81
2024/01/20 07:30:41;;;;;;;35.27;27.47;;;0.70;99.90;;;;;;5099976;28;20498;-82
2024/01/20 07:33:09;;;;;;;33.33;24.00;;;0.70;99.90;;;;;;5098785;28;20465;-81
2024/01/20 07:35:43;;;;;;;32.97;23.83;;;0.70;99.90;;;;;;5097474;28;20449;-82
2024/01/20 07:38:12;;;;;;;30.50;24.57;;;0.70;99.90;;;;;;5097144;28;20445;-81
2024/01/20 07:40:41;;;;;;;38.77;25.53;;;0.70;99.90;;;;;;5097919;28;20984;-79
2024/01/20 07:43:09;;;;;;;35.97;27.13;;;0.80;99.90;;;;;;5097122;28;20465;-80
2024/01/20 07:45:39;;;;;;;35.37;26.27;;;0.70;99.90;;;;;;5097738;28;20442;-80
2024/01/20 07:48:07;;;;;;;39.67;26.23;;;0.80;99.90;;;;;;5096101;28;20492;-82
2024/01/20 07:50:36;;;;;;;36.80;25.13;;;0.80;99.90;;;;;;5098252;28;20471;-81
2024/01/20 07:53:06;;;;;;;36.07;26.90;;;0.80;99.90;;;;;;5096653;28;20464;-80
2024/01/20 07:55:34;;;;;;;35.03;24.77;;;0.90;99.90;;;;;;5098044;28;20612;-80
2024/01/20 07:58:02;;;;;;;33.27;23.80;;;0.80;99.90;;;;;;5098227;28;20442;-82
2024/01/20 08:00:30;;;;;;;34.33;24.03;;;0.80;99.90;;;;;;5097749;28;20503;-80
2024/01/20 08:02:59;;;;;;;34.13;25.10;;;0.80;99.90;;;;;;5097058;28;20878;-80
2024/01/20 08:05:27;;;;;;;31.73;26.53;;;0.80;99.90;;;;;;5097318;28;20865;-80
2024/01/20 08:07:57;;;;;;;37.17;27.10;;;0.90;99.90;;;;;;5097942;28;20457;-81
2024/01/20 08:10:27;;;;;;;32.97;22.93;;;0.90;99.90;;;;;;5097854;28;20844;-82
2024/01/20 08:12:56;;;;;;;34.87;24.27;;;0.90;99.90;;;;;;5098192;28;20477;-83
2024/01/20 08:15:24;;;;;;;32.43;22.57;;;0.90;99.90;;;;;;5097230;28;20450;-81
2024/01/20 08:17:52;;;;;;;31.07;22.07;;;0.90;99.90;;;;;;5097055;28;20449;-81
2024/01/20 08:20:21;;;;;;;32.00;22.40;;;0.90;99.90;;;;;;5097675;28;20809;-81
2024/01/20 08:22:49;;;;;;;32.17;23.53;;;1.00;99.90;;;;;;5098559;28;20474;-81
2024/01/20 08:25:17;;;;;;;29.90;20.83;;;1.00;99.90;;;;;;5098330;28;20475;-81
2024/01/20 08:27:46;;;;;;;28.20;21.47;;;1.00;99.90;;;;;;5097380;28;20472;-80
2024/01/20 08:30:15;;;;;;;27.70;20.77;;;1.00;99.90;;;;;;5098373;28;20426;-80
2024/01/20 08:32:44;;;;;;;31.23;22.37;;;1.10;99.90;;;;;;5096344;28;20487;-81
2024/01/20 08:35:12;;;;;;;31.43;21.90;;;1.10;99.90;;;;;;5097498;28;20472;-80
2024/01/20 08:37:40;;;;;;;31.80;23.70;;;1.10;99.90;;;;;;5096717;28;20456;-81
2024/01/20 08:40:09;;;;;;;28.17;22.20;;;1.10;99.90;;;;;;5096516;28;20442;-83
2024/01/20 08:42:37;;;;;;;29.30;20.63;;;1.10;99.90;;;;;;5096747;28;20524;-82
2024/01/20 08:45:08;;;;;;;27.60;21.30;;;1.20;99.90;;;;;;5096214;28;20450;-81
2024/01/20 08:47:37;;;;;;;32.20;22.00;;;1.20;99.90;;;;;;5097125;28;21043;-82
2024/01/20 08:50:05;;;;;;;25.13;21.77;;;1.20;99.90;;;;;;5095813;28;20868;-81
2024/01/20 08:52:34;;;;;;;27.63;20.67;;;1.20;99.90;;;;;;5095816;28;20560;-81
2024/01/20 08:55:02;;;;;;;23.87;19.30;;;1.30;99.90;;;;;;5095826;28;20449;-81
2024/01/20 08:57:32;;;;;;;27.90;19.57;;;1.30;99.90;;;;;;5095864;28;20449;-81
2024/01/20 09:00:00;;;;;;;28.70;20.87;;;1.30;99.90;;;;;;5095453;28;20449;-81
2024/01/20 09:02:30;;;;;;;28.07;21.30;;;1.40;99.90;;;;;;5095981;28;20505;-82
2024/01/20 09:04:58;;;;;;;28.57;20.03;;;1.40;99.90;;;;;;5095488;28;20454;-82
2024/01/20 09:07:27;;;;;;;23.93;20.00;;;1.40;99.90;;;;;;5096031;28;20904;-81
2024/01/20 09:09:56;;;;;;;28.70;21.33;;;1.40;99.90;;;;;;5094921;28;20537;-81
2024/01/20 09:12:26;;;;;;;29.97;21.03;;;1.40;99.90;;;;;;5094974;28;20477;-82
2024/01/20 09:14:55;;;;;;;27.90;20.60;;;1.50;99.90;;;;;;5095465;28;20473;-82
2024/01/20 09:17:23;;;;;;;25.17;20.20;;;1.50;99.90;;;;;;5095859;28;20502;-80
2024/01/20 09:19:53;;;;;;;32.43;20.73;;;1.50;99.90;;;;;;5095225;28;20541;-82
2024/01/20 09:22:22;;;;;;;30.03;21.37;;;1.60;99.90;;;;;;5096072;28;20463;-81
2024/01/20 09:24:50;;;;;;;27.40;20.73;;;1.60;99.90;;;;;;5095225;28;20452;-81
2024/01/20 09:27:19;;;;;;;26.97;21.50;;;1.60;99.90;;;;;;5095002;28;20529;-81
2024/01/20 09:29:47;;;;;;;26.70;20.93;;;1.60;99.90;;;;;;5095084;28;20793;-79
2024/01/20 09:32:15;;;;;;;36.73;23.30;;;1.70;99.90;;;;;;5094902;28;20502;-80
2024/01/20 09:34:43;;;;;;;28.73;22.30;;;1.70;99.90;;;;;;5096282;28;20472;-81
2024/01/20 09:37:13;;;;;;;26.07;21.53;;;1.70;99.90;;;;;;5094592;28;20513;-81
2024/01/20 09:39:41;;;;;;;27.80;20.17;;;1.80;99.90;;;;;;5094704;28;20454;-80
2024/01/20 09:42:10;;;;;;;26.60;20.60;;;1.80;99.90;;;;;;5095163;28;20471;-82
2024/01/20 09:44:38;;;;;;;25.00;20.93;;;1.80;99.90;;;;;;5095697;28;20478;-81
2024/01/20 09:47:09;;;;;;;29.77;22.33;;;1.80;99.90;;;;;;5094759;28;20517;-79
2024/01/20 09:49:38;;;;;;;27.47;21.30;;;1.90;99.90;;;;;;5094388;28;20962;-80
2024/01/20 09:52:10;;;;;;;27.10;22.17;;;1.90;99.90;;;;;;5094412;28;20481;-81
2024/01/20 09:54:47;;;;;;;25.87;21.90;;;1.90;99.90;;;;;;5095077;28;20441;-82
2024/01/20 09:57:16;;;;;;;27.40;21.57;;;2.00;99.90;;;;;;5094590;28;20652;-82
2024/01/20 09:59:45;;;;;;;28.00;22.20;;;2.00;99.90;;;;;;5094061;28;20450;-79
2024/01/20 10:02:15;;;;;;;28.30;20.03;;;2.10;99.90;;;;;;5094106;28;20475;-80
2024/01/20 10:04:45;;;;;;;25.77;20.87;;;2.10;99.90;;;;;;5094334;28;20450;-80
2024/01/20 10:07:27;;;;;;;26.73;21.17;;;2.10;99.90;;;;;;5094740;28;20447;-79
2024/01/20 10:09:57;;;;;;;25.43;20.80;;;2.20;99.90;;;;;;5097935;28;20452;-80
2024/01/20 10:12:25;;;;;;;23.80;21.23;;;2.20;99.90;;;;;;5098178;28;20897;-78
2024/01/20 10:14:53;;;;;;;28.53;21.90;;;2.30;99.90;;;;;;5097996;28;20494;-81
2024/01/20 10:17:22;;;;;;;24.20;20.70;;;2.30;99.90;;;;;;5098169;28;20957;-80
2024/01/20 10:19:50;;;;;;;28.10;20.57;;;2.30;99.90;;;;;;5097968;28;20444;-79
2024/01/20 10:22:19;;;;;;;25.60;22.87;;;2.40;99.90;;;;;;5098046;28;20861;-79
2024/01/20 10:24:47;;;;;;;24.80;20.43;;;2.40;99.90;;;;;;5097834;28;21030;-81
2024/01/20 10:27:23;;;;;;;27.83;22.37;;;2.40;99.90;;;;;;5098483;28;20455;-79
2024/01/20 10:29:51;;;;;;;27.27;21.33;;;2.40;99.90;;;;;;5097810;28;20919;-80
2024/01/20 10:32:19;;;;;;;22.43;19.50;;;2.40;99.90;;;;;;5097953;28;20462;-80
2024/01/20 10:34:48;;;;;;;24.47;21.40;;;2.50;99.90;;;;;;5099534;28;20527;-80
2024/01/20 10:37:19;;;;;;;25.13;20.07;;;2.50;99.90;;;;;;5097698;28;20447;-80
2024/01/20 10:39:47;;;;;;;26.90;20.50;;;2.50;99.90;;;;;;5099406;28;20424;-80
2024/01/20 10:42:16;;;;;;;27.53;22.20;;;2.60;99.90;;;;;;5097773;28;21011;-80
2024/01/20 10:44:57;;;;;;;25.13;20.83;;;2.50;99.90;;;;;;5097476;28;20457;-81
2024/01/20 10:47:37;;;;;;;23.10;19.97;;;2.60;99.90;;;;;;5097624;28;20464;-81
2024/01/20 10:50:07;;;;;;;23.50;21.00;;;2.60;99.90;;;;;;5099095;28;20509;-78
2024/01/20 10:52:36;;;;;;;22.80;19.53;;;2.60;99.90;;;;;;5096824;28;20464;-79
2024/01/20 10:55:06;;;;;;;22.53;20.17;;;2.60;99.90;;;;;;5097256;28;20502;-79
2024/01/20 10:57:34;;;;;;;28.90;20.80;;;2.70;99.90;;;;;;5098117;28;20462;-79
2024/01/20 11:00:08;;;;;;;26.43;21.90;;;2.70;99.90;;;;;;5096864;28;20454;-79
2024/01/20 11:02:38;;;;;;;24.73;20.33;;;2.70;99.90;;;;;;5096685;28;20475;-79
2024/01/20 11:05:18;;;;;;;24.10;21.43;;;2.80;99.90;;;;;;5096632;28;20543;-79
2024/01/20 11:07:59;;;;;;;22.87;19.97;;;2.80;99.90;;;;;;5097027;28;20493;-79
2024/01/20 11:10:27;;;;;;;23.67;20.10;;;2.80;99.90;;;;;;5097096;28;20447;-80
2024/01/20 11:13:05;;;;;;;24.33;20.20;;;2.90;99.90;;;;;;5097003;28;20870;-80
2024/01/20 11:15:36;;;;;;;23.40;20.70;;;2.90;99.90;;;;;;5096492;28;20480;-79
2024/01/20 11:18:17;;;;;;;25.03;21.33;;;2.90;99.90;;;;;;5096065;28;20428;-79
2024/01/20 11:20:57;;;;;;;24.27;20.57;;;2.90;99.90;;;;;;5096129;28;20451;-78
2024/01/20 11:23:25;;;;;;;23.67;20.10;;;2.90;99.90;;;;;;5097745;28;20463;-77
2024/01/20 11:25:54;;;;;;;26.43;20.10;;;2.90;99.90;;;;;;5095699;28;20457;-78
2024/01/20 11:28:26;;;;;;;22.10;19.47;;;2.90;99.90;;;;;;5096341;28;20534;-78
2024/01/20 11:30:56;;;;;;;22.10;19.70;;;3.00;99.90;;;;;;5096137;28;20448;-78
2024/01/20 11:33:25;;;;;;;23.50;20.30;;;3.00;99.90;;;;;;5096203;28;20452;-80
2024/01/20 11:35:53;;;;;;;24.80;19.70;;;3.00;99.90;;;;;;5097528;28;20440;-79
2024/01/20 11:38:22;;;;;;;21.67;19.33;;;3.10;99.90;;;;;;5099861;28;20437;-79
2024/01/20 11:41:00;;;;;;;21.50;19.20;;;3.10;99.90;;;;;;5098233;28;20489;-80
2024/01/20 11:43:30;;;;;;;25.47;19.83;;;3.10;99.90;;;;;;5097984;28;20451;-79
2024/01/20 11:46:02;;;;;;;34.80;20.33;;;3.10;99.90;;;;;;5098443;28;20467;-79
2024/01/20 11:48:31;;;;;;;25.53;21.60;;;3.10;99.90;;;;;;5098628;28;20450;-79
2024/01/20 11:51:01;;;;;;;25.00;20.77;;;3.10;99.90;;;;;;5097257;28;20450;-78
2024/01/20 11:53:29;;;;;;;26.27;19.27;;;3.00;99.90;;;;;;5097255;28;20879;-80
2024/01/20 11:55:59;;;;;;;23.63;20.70;;;3.10;99.90;;;;;;5097698;28;20448;-80
2024/01/20 11:58:30;;;;;;;24.83;20.87;;;3.10;99.90;;;;;;5104528;28;20447;-79
2024/01/20 12:01:01;;;;;;;22.83;20.50;;;3.10;99.90;;;;;;5107302;28;20464;-79
2024/01/20 12:03:29;;;;;;;24.70;19.47;;;3.10;99.90;;;;;;5105643;28;20965;-80
2024/01/20 12:06:05;;;;;;;22.50;18.80;;;3.10;99.90;;;;;;5106355;28;20514;-80
2024/01/20 12:08:36;;;;;;;22.90;19.60;;;3.20;99.90;;;;;;5104434;28;20431;-79
2024/01/20 12:11:05;;;;;;;23.23;19.10;;;3.20;99.90;;;;;;5102548;28;20437;-78
2024/01/20 12:13:35;;;;;;;25.63;20.50;;;3.20;99.90;;;;;;5101221;28;20453;-79
2024/01/20 12:16:06;;;;;;;22.33;19.57;;;3.20;99.90;;;;;;5100125;28;20443;-79
2024/01/20 12:18:34;;;;;;;24.17;19.70;;;3.20;99.90;;;;;;5100942;28;20493;-78
2024/01/20 12:21:02;;;;;;;24.73;22.00;;;3.30;99.90;;;;;;5101148;28;20447;-78
2024/01/20 12:23:31;;;;;;;22.37;19.93;;;3.30;99.90;;;;;;5099860;28;20447;-79
2024/01/20 12:25:59;;;;;;;24.20;20.60;;;3.40;99.90;;;;;;5096467;28;20452;-79
2024/01/20 12:28:27;;;;;;;21.60;19.10;;;3.40;99.90;;;;;;5099660;28;20512;-79
2024/01/20 12:30:56;;;;;;;25.83;20.33;;;3.40;99.90;;;;;;5096024;28;20475;-78
2024/01/20 12:33:26;;;;;;;22.10;18.80;;;3.40;99.90;;;;;;5095735;28;20818;-78
2024/01/20 12:35:54;;;;;;;23.00;19.73;;;3.40;99.90;;;;;;5096932;28;20447;-79
2024/01/20 12:38:23;;;;;;;25.13;20.30;;;3.50;99.90;;;;;;5096992;28;20443;-78
2024/01/20 12:40:51;;;;;;;24.37;20.70;;;3.50;99.90;;;;;;5094754;28;20505;-78
2024/01/20 12:43:19;;;;;;;22.77;20.37;;;3.50;99.90;;;;;;5093987;28;20459;-78
2024/01/20 12:45:48;;;;;;;24.17;20.57;;;3.50;99.90;;;;;;5095197;28;20539;-78